sensor_id;sensor_type;location;lat;lon;timestamp;P1;durP1;ratioP1;P2;durP2;ratioP2
52320;SDS011;38261;54.090;13.382;2022-12-18T00:01:14;23.73;;;9.87;;
52320;SDS011;38261;54.090;13.382;2022-12-18T00:02:39;19.47;;;8.50;;
52320;SDS011;38261;54.090;13.382;2022-12-18T00:04:03;32.07;;;8.90;;
52320;SDS011;38261;54.090;13.382;2022-12-18T00:05:26;24.33;;;9.10;;
52320;SDS011;38261;54.090;13.382;2022-12-18T00:06:48;18.50;;;9.40;;
52320;SDS011;38261;54.090;13.382;2022-12-18T00:08:11;17.33;;;8.80;;
52320;SDS011;38261;54.090;13.382;2022-12-18T00:09:33;21.43;;;8.67;;
52320;SDS011;38261;54.090;13.382;2022-12-18T00:11:04;19.60;;;9.90;;
52320;SDS011;38261;54.090;13.382;2022-12-18T00:12:27;19.80;;;8.73;;
52320;SDS011;38261;54.090;13.382;2022-12-18T00:13:50;16.90;;;7.47;;
52320;SDS011;38261;54.090;13.382;2022-12-18T00:15:13;17.80;;;8.07;;
52320;SDS011;38261;54.090;13.382;2022-12-18T00:16:35;17.70;;;9.00;;
52320;SDS011;38261;54.090;13.382;2022-12-18T00:17:58;17.43;;;8.03;;
52320;SDS011;38261;54.090;13.382;2022-12-18T00:19:20;17.37;;;8.17;;
52320;SDS011;38261;54.090;13.382;2022-12-18T00:20:42;16.43;;;8.10;;
52320;SDS011;38261;54.090;13.382;2022-12-18T00:22:04;18.97;;;7.70;;
52320;SDS011;38261;54.090;13.382;2022-12-18T00:23:28;20.60;;;9.00;;
52320;SDS011;38261;54.090;13.382;2022-12-18T00:24:50;20.43;;;8.93;;
52320;SDS011;38261;54.090;13.382;2022-12-18T00:26:13;18.67;;;8.67;;
52320;SDS011;38261;54.090;13.382;2022-12-18T00:27:40;17.93;;;8.97;;
52320;SDS011;38261;54.090;13.382;2022-12-18T00:29:03;23.10;;;8.90;;
52320;SDS011;38261;54.090;13.382;2022-12-18T00:30:32;20.50;;;7.97;;
52320;SDS011;38261;54.090;13.382;2022-12-18T00:31:54;19.40;;;8.37;;
52320;SDS011;38261;54.090;13.382;2022-12-18T00:33:17;19.00;;;7.67;;
52320;SDS011;38261;54.090;13.382;2022-12-18T00:34:39;21.60;;;9.63;;
52320;SDS011;38261;54.090;13.382;2022-12-18T00:36:02;20.50;;;8.10;;
52320;SDS011;38261;54.090;13.382;2022-12-18T00:37:25;19.50;;;8.63;;
52320;SDS011;38261;54.090;13.382;2022-12-18T00:38:48;18.10;;;8.20;;
52320;SDS011;38261;54.090;13.382;2022-12-18T00:40:10;24.93;;;9.40;;
52320;SDS011;38261;54.090;13.382;2022-12-18T00:41:33;16.90;;;7.87;;
52320;SDS011;38261;54.090;13.382;2022-12-18T00:43:14;20.37;;;8.47;;
52320;SDS011;38261;54.090;13.382;2022-12-18T00:44:36;19.97;;;8.07;;
52320;SDS011;38261;54.090;13.382;2022-12-18T00:45:58;21.00;;;8.40;;
52320;SDS011;38261;54.090;13.382;2022-12-18T00:47:20;20.00;;;8.60;;
52320;SDS011;38261;54.090;13.382;2022-12-18T00:48:42;21.33;;;8.50;;
52320;SDS011;38261;54.090;13.382;2022-12-18T00:50:05;20.87;;;8.37;;
52320;SDS011;38261;54.090;13.382;2022-12-18T00:51:28;23.57;;;8.60;;
52320;SDS011;38261;54.090;13.382;2022-12-18T00:52:51;25.67;;;9.37;;
52320;SDS011;38261;54.090;13.382;2022-12-18T00:54:13;21.23;;;8.43;;
52320;SDS011;38261;54.090;13.382;2022-12-18T00:55:39;24.80;;;9.80;;
52320;SDS011;38261;54.090;13.382;2022-12-18T00:57:02;20.10;;;8.57;;
52320;SDS011;38261;54.090;13.382;2022-12-18T00:58:24;18.80;;;7.97;;
52320;SDS011;38261;54.090;13.382;2022-12-18T00:59:47;21.70;;;8.50;;
52320;SDS011;38261;54.090;13.382;2022-12-18T01:01:09;29.73;;;10.43;;
52320;SDS011;38261;54.090;13.382;2022-12-18T01:02:32;18.23;;;8.37;;
52320;SDS011;38261;54.090;13.382;2022-12-18T01:03:57;29.60;;;10.97;;
52320;SDS011;38261;54.090;13.382;2022-12-18T01:05:21;24.60;;;9.70;;
52320;SDS011;38261;54.090;13.382;2022-12-18T01:06:43;21.30;;;8.70;;
52320;SDS011;38261;54.090;13.382;2022-12-18T01:08:05;20.67;;;9.20;;
52320;SDS011;38261;54.090;13.382;2022-12-18T01:09:27;24.33;;;10.10;;
52320;SDS011;38261;54.090;13.382;2022-12-18T01:10:50;25.40;;;9.33;;
52320;SDS011;38261;54.090;13.382;2022-12-18T01:12:12;21.00;;;8.07;;
52320;SDS011;38261;54.090;13.382;2022-12-18T01:13:34;24.33;;;7.67;;
52320;SDS011;38261;54.090;13.382;2022-12-18T01:14:57;20.93;;;8.33;;
52320;SDS011;38261;54.090;13.382;2022-12-18T01:16:19;22.87;;;9.63;;
52320;SDS011;38261;54.090;13.382;2022-12-18T01:17:42;22.03;;;8.73;;
52320;SDS011;38261;54.090;13.382;2022-12-18T01:19:05;22.03;;;9.17;;
52320;SDS011;38261;54.090;13.382;2022-12-18T01:20:27;19.53;;;8.73;;
52320;SDS011;38261;54.090;13.382;2022-12-18T01:21:49;22.37;;;8.20;;
52320;SDS011;38261;54.090;13.382;2022-12-18T01:23:11;21.40;;;9.50;;
52320;SDS011;38261;54.090;13.382;2022-12-18T01:24:33;30.73;;;9.00;;
52320;SDS011;38261;54.090;13.382;2022-12-18T01:25:55;23.20;;;9.40;;
52320;SDS011;38261;54.090;13.382;2022-12-18T01:27:17;27.40;;;10.07;;
52320;SDS011;38261;54.090;13.382;2022-12-18T01:28:40;28.37;;;9.80;;
52320;SDS011;38261;54.090;13.382;2022-12-18T01:30:02;25.07;;;9.67;;
52320;SDS011;38261;54.090;13.382;2022-12-18T01:31:26;27.87;;;10.47;;
52320;SDS011;38261;54.090;13.382;2022-12-18T01:32:50;23.97;;;8.93;;
52320;SDS011;38261;54.090;13.382;2022-12-18T01:34:13;21.90;;;9.43;;
52320;SDS011;38261;54.090;13.382;2022-12-18T01:35:45;24.07;;;8.33;;
52320;SDS011;38261;54.090;13.382;2022-12-18T01:37:07;28.73;;;8.60;;
52320;SDS011;38261;54.090;13.382;2022-12-18T01:38:29;23.30;;;8.57;;
52320;SDS011;38261;54.090;13.382;2022-12-18T01:39:52;25.00;;;9.50;;
52320;SDS011;38261;54.090;13.382;2022-12-18T01:41:16;25.17;;;9.17;;
52320;SDS011;38261;54.090;13.382;2022-12-18T01:42:40;23.10;;;8.90;;
52320;SDS011;38261;54.090;13.382;2022-12-18T01:44:45;24.30;;;9.90;;
52320;SDS011;38261;54.090;13.382;2022-12-18T01:46:03;26.03;;;9.73;;
52320;SDS011;38261;54.090;13.382;2022-12-18T01:48:59;28.07;;;9.37;;
52320;SDS011;38261;54.090;13.382;2022-12-18T01:51:56;26.87;;;9.00;;
52320;SDS011;38261;54.090;13.382;2022-12-18T01:53:21;25.07;;;8.23;;
52320;SDS011;38261;54.090;13.382;2022-12-18T01:54:45;23.73;;;9.17;;
52320;SDS011;38261;54.090;13.382;2022-12-18T01:56:12;19.20;;;8.40;;
52320;SDS011;38261;54.090;13.382;2022-12-18T01:57:36;23.10;;;9.47;;
52320;SDS011;38261;54.090;13.382;2022-12-18T01:59:03;28.50;;;9.70;;
52320;SDS011;38261;54.090;13.382;2022-12-18T02:00:29;29.93;;;9.77;;
52320;SDS011;38261;54.090;13.382;2022-12-18T02:01:51;21.20;;;9.57;;
52320;SDS011;38261;54.090;13.382;2022-12-18T02:03:14;26.57;;;9.60;;
52320;SDS011;38261;54.090;13.382;2022-12-18T02:04:36;24.23;;;9.20;;
52320;SDS011;38261;54.090;13.382;2022-12-18T02:10:46;34.10;;;11.00;;
52320;SDS011;38261;54.090;13.382;2022-12-18T02:12:19;27.33;;;10.63;;
52320;SDS011;38261;54.090;13.382;2022-12-18T02:15:26;26.63;;;9.20;;
52320;SDS011;38261;54.090;13.382;2022-12-18T02:18:22;30.23;;;10.00;;
52320;SDS011;38261;54.090;13.382;2022-12-18T02:27:47;20.83;;;7.60;;
52320;SDS011;38261;54.090;13.382;2022-12-18T02:29:55;24.87;;;9.33;;
52320;SDS011;38261;54.090;13.382;2022-12-18T02:31:06;26.90;;;8.97;;
52320;SDS011;38261;54.090;13.382;2022-12-18T02:32:34;25.50;;;10.27;;
52320;SDS011;38261;54.090;13.382;2022-12-18T02:34:01;32.10;;;10.77;;
52320;SDS011;38261;54.090;13.382;2022-12-18T02:35:27;24.30;;;8.83;;
52320;SDS011;38261;54.090;13.382;2022-12-18T02:36:51;29.23;;;9.97;;
52320;SDS011;38261;54.090;13.382;2022-12-18T02:38:15;26.50;;;10.33;;
52320;SDS011;38261;54.090;13.382;2022-12-18T02:39:40;27.47;;;10.60;;
52320;SDS011;38261;54.090;13.382;2022-12-18T02:41:05;26.27;;;9.47;;
52320;SDS011;38261;54.090;13.382;2022-12-18T02:42:27;26.50;;;11.27;;
52320;SDS011;38261;54.090;13.382;2022-12-18T02:43:53;29.97;;;9.77;;
52320;SDS011;38261;54.090;13.382;2022-12-18T02:45:18;22.43;;;8.50;;
52320;SDS011;38261;54.090;13.382;2022-12-18T02:46:41;25.53;;;9.50;;
52320;SDS011;38261;54.090;13.382;2022-12-18T02:48:07;28.43;;;9.30;;
52320;SDS011;38261;54.090;13.382;2022-12-18T02:51:29;32.03;;;10.30;;
52320;SDS011;38261;54.090;13.382;2022-12-18T02:53:17;26.70;;;9.30;;
52320;SDS011;38261;54.090;13.382;2022-12-18T02:56:26;29.10;;;10.03;;
52320;SDS011;38261;54.090;13.382;2022-12-18T02:57:55;33.90;;;9.53;;
52320;SDS011;38261;54.090;13.382;2022-12-18T02:59:39;31.70;;;10.80;;
52320;SDS011;38261;54.090;13.382;2022-12-18T03:01:15;39.40;;;12.37;;
52320;SDS011;38261;54.090;13.382;2022-12-18T03:02:45;31.23;;;9.00;;
52320;SDS011;38261;54.090;13.382;2022-12-18T03:04:20;25.60;;;10.33;;
52320;SDS011;38261;54.090;13.382;2022-12-18T03:05:56;25.43;;;9.73;;
52320;SDS011;38261;54.090;13.382;2022-12-18T03:07:28;34.83;;;11.33;;
52320;SDS011;38261;54.090;13.382;2022-12-18T03:09:08;28.07;;;10.87;;
52320;SDS011;38261;54.090;13.382;2022-12-18T03:10:34;30.73;;;11.43;;
52320;SDS011;38261;54.090;13.382;2022-12-18T03:12:04;27.70;;;8.80;;
52320;SDS011;38261;54.090;13.382;2022-12-18T03:13:54;27.33;;;9.17;;
52320;SDS011;38261;54.090;13.382;2022-12-18T03:16:40;28.47;;;10.90;;
52320;SDS011;38261;54.090;13.382;2022-12-18T03:18:27;35.67;;;10.20;;
52320;SDS011;38261;54.090;13.382;2022-12-18T03:19:51;27.20;;;10.07;;
52320;SDS011;38261;54.090;13.382;2022-12-18T03:21:18;30.57;;;10.10;;
52320;SDS011;38261;54.090;13.382;2022-12-18T03:22:44;30.17;;;11.00;;
52320;SDS011;38261;54.090;13.382;2022-12-18T03:24:08;31.57;;;11.50;;
52320;SDS011;38261;54.090;13.382;2022-12-18T03:25:32;28.97;;;11.83;;
52320;SDS011;38261;54.090;13.382;2022-12-18T03:26:57;26.70;;;10.30;;
52320;SDS011;38261;54.090;13.382;2022-12-18T03:28:22;35.40;;;11.13;;
52320;SDS011;38261;54.090;13.382;2022-12-18T03:29:46;31.67;;;11.33;;
52320;SDS011;38261;54.090;13.382;2022-12-18T03:31:13;28.30;;;10.30;;
52320;SDS011;38261;54.090;13.382;2022-12-18T03:32:43;33.67;;;10.70;;
52320;SDS011;38261;54.090;13.382;2022-12-18T03:34:16;23.97;;;9.67;;
52320;SDS011;38261;54.090;13.382;2022-12-18T03:35:43;34.40;;;10.70;;
52320;SDS011;38261;54.090;13.382;2022-12-18T03:37:05;26.93;;;9.70;;
52320;SDS011;38261;54.090;13.382;2022-12-18T03:38:28;21.97;;;8.73;;
52320;SDS011;38261;54.090;13.382;2022-12-18T03:39:50;28.40;;;9.00;;
52320;SDS011;38261;54.090;13.382;2022-12-18T03:41:28;27.77;;;9.93;;
52320;SDS011;38261;54.090;13.382;2022-12-18T03:43:05;19.97;;;9.00;;
52320;SDS011;38261;54.090;13.382;2022-12-18T03:44:44;31.47;;;9.83;;
52320;SDS011;38261;54.090;13.382;2022-12-18T03:48:28;23.43;;;8.90;;
52320;SDS011;38261;54.090;13.382;2022-12-18T03:51:48;20.67;;;8.30;;
52320;SDS011;38261;54.090;13.382;2022-12-18T03:55:04;24.53;;;9.43;;
52320;SDS011;38261;54.090;13.382;2022-12-18T03:56:29;23.80;;;9.33;;
52320;SDS011;38261;54.090;13.382;2022-12-18T03:57:54;25.80;;;10.30;;
52320;SDS011;38261;54.090;13.382;2022-12-18T03:59:18;26.20;;;9.87;;
52320;SDS011;38261;54.090;13.382;2022-12-18T04:00:41;22.67;;;8.53;;
52320;SDS011;38261;54.090;13.382;2022-12-18T04:02:04;23.00;;;9.43;;
52320;SDS011;38261;54.090;13.382;2022-12-18T04:03:28;24.50;;;9.70;;
52320;SDS011;38261;54.090;13.382;2022-12-18T04:04:53;21.73;;;8.33;;
52320;SDS011;38261;54.090;13.382;2022-12-18T04:06:21;22.60;;;8.00;;
52320;SDS011;38261;54.090;13.382;2022-12-18T04:07:45;24.20;;;9.47;;
52320;SDS011;38261;54.090;13.382;2022-12-18T04:09:09;23.87;;;9.27;;
52320;SDS011;38261;54.090;13.382;2022-12-18T04:10:31;28.50;;;8.47;;
52320;SDS011;38261;54.090;13.382;2022-12-18T04:11:53;20.70;;;8.87;;
52320;SDS011;38261;54.090;13.382;2022-12-18T04:13:27;22.53;;;8.67;;
52320;SDS011;38261;54.090;13.382;2022-12-18T04:14:51;16.57;;;7.77;;
52320;SDS011;38261;54.090;13.382;2022-12-18T04:16:13;19.90;;;8.60;;
52320;SDS011;38261;54.090;13.382;2022-12-18T04:17:36;18.30;;;6.90;;
52320;SDS011;38261;54.090;13.382;2022-12-18T04:18:58;19.07;;;7.50;;
52320;SDS011;38261;54.090;13.382;2022-12-18T04:20:20;18.87;;;7.97;;
52320;SDS011;38261;54.090;13.382;2022-12-18T04:21:42;18.27;;;8.50;;
52320;SDS011;38261;54.090;13.382;2022-12-18T04:23:05;22.23;;;7.93;;
52320;SDS011;38261;54.090;13.382;2022-12-18T04:24:27;21.07;;;8.17;;
52320;SDS011;38261;54.090;13.382;2022-12-18T04:25:49;18.07;;;7.77;;
52320;SDS011;38261;54.090;13.382;2022-12-18T04:27:11;22.30;;;8.70;;
52320;SDS011;38261;54.090;13.382;2022-12-18T04:28:33;19.33;;;8.10;;
52320;SDS011;38261;54.090;13.382;2022-12-18T04:29:56;24.47;;;8.87;;
52320;SDS011;38261;54.090;13.382;2022-12-18T04:31:18;21.93;;;8.10;;
52320;SDS011;38261;54.090;13.382;2022-12-18T04:32:40;23.57;;;7.77;;
52320;SDS011;38261;54.090;13.382;2022-12-18T04:34:08;30.17;;;8.47;;
52320;SDS011;38261;54.090;13.382;2022-12-18T04:35:30;25.37;;;8.37;;
52320;SDS011;38261;54.090;13.382;2022-12-18T04:36:52;19.27;;;7.67;;
52320;SDS011;38261;54.090;13.382;2022-12-18T04:38:14;22.07;;;7.90;;
52320;SDS011;38261;54.090;13.382;2022-12-18T04:39:36;20.60;;;8.80;;
52320;SDS011;38261;54.090;13.382;2022-12-18T04:40:59;18.70;;;7.90;;
52320;SDS011;38261;54.090;13.382;2022-12-18T04:42:21;19.20;;;7.47;;
52320;SDS011;38261;54.090;13.382;2022-12-18T04:43:43;17.07;;;7.17;;
52320;SDS011;38261;54.090;13.382;2022-12-18T04:45:05;19.20;;;7.23;;
52320;SDS011;38261;54.090;13.382;2022-12-18T04:46:28;17.17;;;7.10;;
52320;SDS011;38261;54.090;13.382;2022-12-18T04:47:50;24.13;;;8.30;;
52320;SDS011;38261;54.090;13.382;2022-12-18T04:49:12;21.97;;;9.17;;
52320;SDS011;38261;54.090;13.382;2022-12-18T04:50:34;22.07;;;8.50;;
52320;SDS011;38261;54.090;13.382;2022-12-18T04:51:56;17.90;;;6.50;;
52320;SDS011;38261;54.090;13.382;2022-12-18T04:53:18;16.10;;;7.37;;
52320;SDS011;38261;54.090;13.382;2022-12-18T04:54:41;23.30;;;9.07;;
52320;SDS011;38261;54.090;13.382;2022-12-18T04:56:12;15.67;;;6.70;;
52320;SDS011;38261;54.090;13.382;2022-12-18T04:57:36;18.67;;;7.20;;
52320;SDS011;38261;54.090;13.382;2022-12-18T04:58:58;17.83;;;7.47;;
52320;SDS011;38261;54.090;13.382;2022-12-18T05:00:20;16.67;;;6.97;;
52320;SDS011;38261;54.090;13.382;2022-12-18T05:01:43;21.47;;;8.20;;
52320;SDS011;38261;54.090;13.382;2022-12-18T05:03:05;17.27;;;7.30;;
52320;SDS011;38261;54.090;13.382;2022-12-18T05:04:27;18.87;;;7.67;;
52320;SDS011;38261;54.090;13.382;2022-12-18T05:05:50;19.90;;;8.90;;
52320;SDS011;38261;54.090;13.382;2022-12-18T05:07:12;22.43;;;8.33;;
52320;SDS011;38261;54.090;13.382;2022-12-18T05:08:35;24.20;;;6.70;;
52320;SDS011;38261;54.090;13.382;2022-12-18T05:09:57;26.70;;;9.40;;
52320;SDS011;38261;54.090;13.382;2022-12-18T05:11:19;19.27;;;7.60;;
52320;SDS011;38261;54.090;13.382;2022-12-18T05:12:41;15.60;;;6.90;;
52320;SDS011;38261;54.090;13.382;2022-12-18T05:14:20;18.43;;;7.80;;
52320;SDS011;38261;54.090;13.382;2022-12-18T05:15:43;25.67;;;7.63;;
52320;SDS011;38261;54.090;13.382;2022-12-18T05:17:13;15.37;;;7.47;;
52320;SDS011;38261;54.090;13.382;2022-12-18T05:18:36;17.00;;;6.87;;
52320;SDS011;38261;54.090;13.382;2022-12-18T05:19:58;20.27;;;7.63;;
52320;SDS011;38261;54.090;13.382;2022-12-18T05:21:20;17.30;;;7.17;;
52320;SDS011;38261;54.090;13.382;2022-12-18T05:22:42;20.10;;;8.50;;
52320;SDS011;38261;54.090;13.382;2022-12-18T05:24:04;19.50;;;8.27;;
52320;SDS011;38261;54.090;13.382;2022-12-18T05:25:27;24.13;;;8.27;;
52320;SDS011;38261;54.090;13.382;2022-12-18T05:26:49;18.97;;;7.03;;
52320;SDS011;38261;54.090;13.382;2022-12-18T05:28:11;17.23;;;7.53;;
52320;SDS011;38261;54.090;13.382;2022-12-18T05:29:34;26.13;;;7.70;;
52320;SDS011;38261;54.090;13.382;2022-12-18T05:30:56;20.20;;;8.70;;
52320;SDS011;38261;54.090;13.382;2022-12-18T05:32:20;17.77;;;8.13;;
52320;SDS011;38261;54.090;13.382;2022-12-18T05:33:42;27.63;;;7.43;;
52320;SDS011;38261;54.090;13.382;2022-12-18T05:35:05;20.23;;;7.90;;
52320;SDS011;38261;54.090;13.382;2022-12-18T05:36:28;15.30;;;7.57;;
52320;SDS011;38261;54.090;13.382;2022-12-18T05:37:51;18.03;;;7.73;;
52320;SDS011;38261;54.090;13.382;2022-12-18T05:39:13;17.00;;;7.57;;
52320;SDS011;38261;54.090;13.382;2022-12-18T05:40:35;15.50;;;6.93;;
52320;SDS011;38261;54.090;13.382;2022-12-18T05:41:58;17.17;;;7.80;;
52320;SDS011;38261;54.090;13.382;2022-12-18T05:43:20;16.67;;;7.90;;
52320;SDS011;38261;54.090;13.382;2022-12-18T05:44:43;16.60;;;7.30;;
52320;SDS011;38261;54.090;13.382;2022-12-18T05:46:07;17.77;;;8.03;;
52320;SDS011;38261;54.090;13.382;2022-12-18T05:47:30;15.63;;;7.53;;
52320;SDS011;38261;54.090;13.382;2022-12-18T05:48:53;17.87;;;8.07;;
52320;SDS011;38261;54.090;13.382;2022-12-18T05:51:30;18.00;;;8.20;;
52320;SDS011;38261;54.090;13.382;2022-12-18T05:52:52;16.07;;;7.77;;
52320;SDS011;38261;54.090;13.382;2022-12-18T05:54:14;18.60;;;7.80;;
52320;SDS011;38261;54.090;13.382;2022-12-18T05:55:37;19.97;;;9.53;;
52320;SDS011;38261;54.090;13.382;2022-12-18T05:57:01;20.83;;;8.03;;
52320;SDS011;38261;54.090;13.382;2022-12-18T05:58:23;24.37;;;8.97;;
52320;SDS011;38261;54.090;13.382;2022-12-18T05:59:45;26.27;;;8.20;;
52320;SDS011;38261;54.090;13.382;2022-12-18T06:02:32;17.47;;;8.53;;
52320;SDS011;38261;54.090;13.382;2022-12-18T06:03:54;19.77;;;7.83;;
52320;SDS011;38261;54.090;13.382;2022-12-18T06:05:17;18.30;;;7.13;;
52320;SDS011;38261;54.090;13.382;2022-12-18T06:06:39;20.33;;;7.27;;
52320;SDS011;38261;54.090;13.382;2022-12-18T06:08:01;15.23;;;7.07;;
52320;SDS011;38261;54.090;13.382;2022-12-18T06:09:23;19.97;;;7.00;;
52320;SDS011;38261;54.090;13.382;2022-12-18T06:10:49;18.83;;;7.10;;
52320;SDS011;38261;54.090;13.382;2022-12-18T06:12:13;21.67;;;8.20;;
52320;SDS011;38261;54.090;13.382;2022-12-18T06:13:35;15.97;;;6.60;;
52320;SDS011;38261;54.090;13.382;2022-12-18T06:14:59;17.37;;;7.30;;
52320;SDS011;38261;54.090;13.382;2022-12-18T06:16:21;21.70;;;7.43;;
52320;SDS011;38261;54.090;13.382;2022-12-18T06:17:44;19.60;;;7.30;;
52320;SDS011;38261;54.090;13.382;2022-12-18T06:19:06;16.27;;;6.60;;
52320;SDS011;38261;54.090;13.382;2022-12-18T06:20:29;22.07;;;8.47;;
52320;SDS011;38261;54.090;13.382;2022-12-18T06:21:54;16.43;;;7.10;;
52320;SDS011;38261;54.090;13.382;2022-12-18T06:23:19;17.27;;;6.60;;
52320;SDS011;38261;54.090;13.382;2022-12-18T06:24:41;16.93;;;6.93;;
52320;SDS011;38261;54.090;13.382;2022-12-18T06:26:07;18.27;;;7.07;;
52320;SDS011;38261;54.090;13.382;2022-12-18T06:27:31;16.63;;;7.00;;
52320;SDS011;38261;54.090;13.382;2022-12-18T06:28:55;17.83;;;7.47;;
52320;SDS011;38261;54.090;13.382;2022-12-18T06:30:17;22.17;;;7.60;;
52320;SDS011;38261;54.090;13.382;2022-12-18T06:31:40;20.63;;;8.27;;
52320;SDS011;38261;54.090;13.382;2022-12-18T06:33:02;16.67;;;8.07;;
52320;SDS011;38261;54.090;13.382;2022-12-18T06:34:24;27.37;;;8.20;;
52320;SDS011;38261;54.090;13.382;2022-12-18T06:35:46;24.07;;;9.57;;
52320;SDS011;38261;54.090;13.382;2022-12-18T06:37:08;23.27;;;7.70;;
52320;SDS011;38261;54.090;13.382;2022-12-18T06:38:31;21.03;;;8.77;;
52320;SDS011;38261;54.090;13.382;2022-12-18T06:39:54;20.60;;;7.40;;
52320;SDS011;38261;54.090;13.382;2022-12-18T06:41:18;19.83;;;8.43;;
52320;SDS011;38261;54.090;13.382;2022-12-18T06:42:42;21.23;;;8.57;;
52320;SDS011;38261;54.090;13.382;2022-12-18T06:44:04;20.93;;;8.00;;
52320;SDS011;38261;54.090;13.382;2022-12-18T06:45:27;19.10;;;7.10;;
52320;SDS011;38261;54.090;13.382;2022-12-18T06:46:50;15.70;;;7.50;;
52320;SDS011;38261;54.090;13.382;2022-12-18T06:48:12;18.33;;;7.23;;
52320;SDS011;38261;54.090;13.382;2022-12-18T06:49:34;24.47;;;7.93;;
52320;SDS011;38261;54.090;13.382;2022-12-18T06:50:56;21.60;;;8.30;;
52320;SDS011;38261;54.090;13.382;2022-12-18T06:52:18;18.83;;;8.67;;
52320;SDS011;38261;54.090;13.382;2022-12-18T06:53:41;19.53;;;7.13;;
52320;SDS011;38261;54.090;13.382;2022-12-18T06:55:03;20.33;;;8.30;;
52320;SDS011;38261;54.090;13.382;2022-12-18T06:56:26;22.60;;;8.30;;
52320;SDS011;38261;54.090;13.382;2022-12-18T06:57:48;18.63;;;7.73;;
52320;SDS011;38261;54.090;13.382;2022-12-18T06:59:10;23.87;;;9.00;;
52320;SDS011;38261;54.090;13.382;2022-12-18T07:00:33;24.37;;;8.53;;
52320;SDS011;38261;54.090;13.382;2022-12-18T07:01:56;19.07;;;8.00;;
52320;SDS011;38261;54.090;13.382;2022-12-18T07:03:18;26.53;;;7.90;;
52320;SDS011;38261;54.090;13.382;2022-12-18T07:04:40;22.10;;;7.40;;
52320;SDS011;38261;54.090;13.382;2022-12-18T07:06:02;17.40;;;7.53;;
52320;SDS011;38261;54.090;13.382;2022-12-18T07:07:25;25.93;;;9.10;;
52320;SDS011;38261;54.090;13.382;2022-12-18T07:08:47;20.47;;;8.20;;
52320;SDS011;38261;54.090;13.382;2022-12-18T07:10:10;20.50;;;7.80;;
52320;SDS011;38261;54.090;13.382;2022-12-18T07:11:32;28.53;;;9.77;;
52320;SDS011;38261;54.090;13.382;2022-12-18T07:12:54;19.80;;;7.13;;
52320;SDS011;38261;54.090;13.382;2022-12-18T07:14:17;28.80;;;8.70;;
52320;SDS011;38261;54.090;13.382;2022-12-18T07:15:39;20.03;;;7.90;;
52320;SDS011;38261;54.090;13.382;2022-12-18T07:17:01;24.03;;;8.77;;
52320;SDS011;38261;54.090;13.382;2022-12-18T07:18:23;17.17;;;7.00;;
52320;SDS011;38261;54.090;13.382;2022-12-18T07:19:46;21.00;;;8.47;;
52320;SDS011;38261;54.090;13.382;2022-12-18T07:21:09;21.17;;;8.33;;
52320;SDS011;38261;54.090;13.382;2022-12-18T07:22:34;17.13;;;7.10;;
52320;SDS011;38261;54.090;13.382;2022-12-18T07:23:56;24.10;;;7.30;;
52320;SDS011;38261;54.090;13.382;2022-12-18T07:25:18;25.43;;;7.43;;
52320;SDS011;38261;54.090;13.382;2022-12-18T07:26:40;19.87;;;7.60;;
52320;SDS011;38261;54.090;13.382;2022-12-18T07:28:03;29.33;;;7.53;;
52320;SDS011;38261;54.090;13.382;2022-12-18T07:29:25;23.67;;;7.37;;
52320;SDS011;38261;54.090;13.382;2022-12-18T07:30:47;29.80;;;11.03;;
52320;SDS011;38261;54.090;13.382;2022-12-18T07:32:09;18.50;;;7.87;;
52320;SDS011;38261;54.090;13.382;2022-12-18T07:33:33;23.50;;;7.77;;
52320;SDS011;38261;54.090;13.382;2022-12-18T07:34:56;22.07;;;8.53;;
52320;SDS011;38261;54.090;13.382;2022-12-18T07:36:18;25.90;;;9.77;;
52320;SDS011;38261;54.090;13.382;2022-12-18T07:37:45;19.03;;;9.13;;
52320;SDS011;38261;54.090;13.382;2022-12-18T07:39:07;20.00;;;7.97;;
52320;SDS011;38261;54.090;13.382;2022-12-18T07:40:29;21.50;;;8.10;;
52320;SDS011;38261;54.090;13.382;2022-12-18T07:41:51;16.53;;;7.53;;
52320;SDS011;38261;54.090;13.382;2022-12-18T07:43:32;19.90;;;8.27;;
52320;SDS011;38261;54.090;13.382;2022-12-18T07:44:55;27.50;;;9.30;;
52320;SDS011;38261;54.090;13.382;2022-12-18T07:46:18;17.60;;;8.00;;
52320;SDS011;38261;54.090;13.382;2022-12-18T07:47:41;20.10;;;7.73;;
52320;SDS011;38261;54.090;13.382;2022-12-18T07:49:03;24.93;;;8.90;;
52320;SDS011;38261;54.090;13.382;2022-12-18T07:50:25;17.97;;;7.50;;
52320;SDS011;38261;54.090;13.382;2022-12-18T07:51:47;18.17;;;8.17;;
52320;SDS011;38261;54.090;13.382;2022-12-18T07:53:10;27.60;;;9.07;;
52320;SDS011;38261;54.090;13.382;2022-12-18T07:54:32;24.37;;;8.10;;
52320;SDS011;38261;54.090;13.382;2022-12-18T07:55:55;21.00;;;7.80;;
52320;SDS011;38261;54.090;13.382;2022-12-18T07:57:38;21.95;;;9.10;;
52320;SDS011;38261;54.090;13.382;2022-12-18T07:59:20;24.13;;;8.73;;
52320;SDS011;38261;54.090;13.382;2022-12-18T08:00:42;21.40;;;8.20;;
52320;SDS011;38261;54.090;13.382;2022-12-18T08:02:05;26.33;;;8.80;;
52320;SDS011;38261;54.090;13.382;2022-12-18T08:03:27;21.67;;;8.37;;
52320;SDS011;38261;54.090;13.382;2022-12-18T08:04:49;24.00;;;9.50;;
52320;SDS011;38261;54.090;13.382;2022-12-18T08:06:11;21.17;;;9.03;;
52320;SDS011;38261;54.090;13.382;2022-12-18T08:07:33;22.23;;;8.57;;
52320;SDS011;38261;54.090;13.382;2022-12-18T08:08:56;27.27;;;9.70;;
52320;SDS011;38261;54.090;13.382;2022-12-18T08:10:18;21.70;;;9.27;;
52320;SDS011;38261;54.090;13.382;2022-12-18T08:11:41;25.97;;;9.20;;
52320;SDS011;38261;54.090;13.382;2022-12-18T08:13:03;24.00;;;9.93;;
52320;SDS011;38261;54.090;13.382;2022-12-18T08:14:25;21.40;;;9.40;;
52320;SDS011;38261;54.090;13.382;2022-12-18T08:16:01;23.53;;;9.47;;
52320;SDS011;38261;54.090;13.382;2022-12-18T08:17:25;25.10;;;8.77;;
52320;SDS011;38261;54.090;13.382;2022-12-18T08:18:47;27.47;;;9.97;;
52320;SDS011;38261;54.090;13.382;2022-12-18T08:20:11;31.17;;;9.77;;
52320;SDS011;38261;54.090;13.382;2022-12-18T08:21:35;23.97;;;8.80;;
52320;SDS011;38261;54.090;13.382;2022-12-18T08:22:58;24.43;;;8.23;;
52320;SDS011;38261;54.090;13.382;2022-12-18T08:24:20;27.93;;;9.27;;
52320;SDS011;38261;54.090;13.382;2022-12-18T08:25:42;23.13;;;9.90;;
52320;SDS011;38261;54.090;13.382;2022-12-18T08:27:05;25.43;;;8.67;;
52320;SDS011;38261;54.090;13.382;2022-12-18T08:28:47;28.70;;;8.83;;
52320;SDS011;38261;54.090;13.382;2022-12-18T08:30:11;27.23;;;9.70;;
52320;SDS011;38261;54.090;13.382;2022-12-18T08:31:33;34.27;;;12.27;;
52320;SDS011;38261;54.090;13.382;2022-12-18T08:32:56;29.33;;;10.37;;
52320;SDS011;38261;54.090;13.382;2022-12-18T08:34:18;30.93;;;10.03;;
52320;SDS011;38261;54.090;13.382;2022-12-18T08:35:40;33.27;;;10.00;;
52320;SDS011;38261;54.090;13.382;2022-12-18T08:37:06;25.00;;;9.33;;
52320;SDS011;38261;54.090;13.382;2022-12-18T08:38:28;31.80;;;11.00;;
52320;SDS011;38261;54.090;13.382;2022-12-18T08:39:50;29.53;;;10.20;;
52320;SDS011;38261;54.090;13.382;2022-12-18T08:41:13;33.63;;;9.60;;
52320;SDS011;38261;54.090;13.382;2022-12-18T08:42:37;29.27;;;10.50;;
52320;SDS011;38261;54.090;13.382;2022-12-18T08:44:17;29.90;;;11.53;;
52320;SDS011;38261;54.090;13.382;2022-12-18T08:45:58;26.63;;;9.93;;
52320;SDS011;38261;54.090;13.382;2022-12-18T08:47:20;34.93;;;11.50;;